CheckWX is a tool to help pilots better visualize weather data.  It is not intended as a substitute for an official pre-flight weather briefing.

07:16:05 UTC

KEBA METAR
Elbert County-Patz Field Airport
Elberton, Georgia, USA
Current

21 mins ago

KEBA 210655Z AUTO 00000KT 10SM CLR 20/16 A2997 RMK AO2 T02010155
Observed
May-21 @ 06:55 UTC
Visibility
10 SM
Flight Rules
VFR
Cloud Levels
  • Clear skies
Temperature
20°C / 68°F
Dewpoint
16°C / 61°F
Humidity
78%
Altimeter
29.97" Hg
Pressure
1014.92 hPa
Previous

41 mins ago

KEBA 210635Z AUTO 00000KT 10SM CLR 20/16 A2996 RMK AO2 T02020155
Observed
May-21 @ 06:35 UTC
Visibility
10 SM
Flight Rules
VFR
Cloud Levels
  • Clear skies
Temperature
20°C / 68°F
Dewpoint
16°C / 61°F
Humidity
78%
Altimeter
29.96" Hg
Pressure
1014.52 hPa
Previous

1 hour ago

KEBA 210615Z AUTO 00000KT 10SM CLR 21/15 A2996 RMK AO2 T02060154
Observed
May-21 @ 06:15 UTC
Visibility
10 SM
Flight Rules
VFR
Cloud Levels
  • Clear skies
Temperature
21°C / 70°F
Dewpoint
15°C / 59°F
Humidity
69%
Altimeter
29.96" Hg
Pressure
1014.52 hPa